Etusivu
METAR-TAF:

METAR-TAF

Lentoasemat :

Aurora, Illinois, Yhdysvallat

Leveyspiiri: 41-46-12N, Pituuspiiri: 088-28-53W, korkeus merenpinnasta: 215 m

Tämänhetkinen sää

Tämä raportti tehtiin 35 minuuttia sitten, kello 19.52 UTC
Tuuli 11 kn lounaasta puuskistuen 24 kn:hen
Lämpötila 26°C
Kosteus 65%
Ilmanpaine 1003 hPa
Näkyvyys: 16.1 km
Muutamia pilviä 2300 ft:n korkeudessa
Hajanaisia pilviä 2800 ft:n korkeudessa
Hajanaisia pilviä 3400 ft:n korkeudessa

METAR: KARR 241952Z 22011G24KT 10SM FEW023 SCT028 SCT034 26/19 A2962 RMK AO2 SLP024 T02560189

Aika: 15:27 (20:27 UTC)


TAF: puuttuu

Säähavainnot ja -ennusteet yli 4000 lentoasemalta (METAR- ja TAF-raportit).

Käytössä olevat sääasemat on merkitty karttaan keltaisilla ja punaisilla pisteillä.

Aseta hiiri pisteen päälle nähdäksesi sääaseman nimen.

Klikkaa sitten nähdäksesi säähavainnot ja -ennusteet.

Kartan vaihtaminen: klikkaa mustalla rastilla varustettuja vihreitä pisteitä, niin voit zoomata sisään; viivalla varustettua vihreää pistettä, niin voit zoomata ulos tai vihreitä nuolia, niin pääset viereisille kartoille.


METAR-TAF: